createdAt,value
2016-12-17T00:00:21.801Z,39.62
2016-12-17T00:01:30.787Z,39.61
2016-12-17T00:02:39.467Z,39.91
2016-12-17T00:03:48.179Z,39.61
2016-12-17T00:04:57.511Z,39.89
2016-12-17T00:06:06.919Z,39.91
2016-12-17T00:07:15.613Z,39.91
2016-12-17T00:08:24.967Z,39.89
2016-12-17T00:09:33.651Z,39.81
2016-12-17T00:10:42.935Z,39.91
2016-12-17T00:11:51.617Z,39.91
2016-12-17T00:13:00.911Z,39.51
2016-12-17T00:14:10.829Z,39.89
2016-12-17T00:15:20.133Z,39.89
2016-12-17T00:16:29.163Z,39.81
2016-12-17T00:17:38.151Z,39.7
2016-12-17T00:18:47.765Z,39.91
2016-12-17T00:19:57.069Z,39.79
2016-12-17T00:21:06.371Z,39.89
2016-12-17T00:22:15.076Z,39.79
2016-12-17T00:23:24.719Z,39.91
2016-12-17T00:24:34.004Z,39.79
2016-12-17T00:25:43.019Z,39.91
2016-12-17T00:26:52.009Z,39.79
2016-12-17T00:28:01.336Z,39.91
2016-12-17T00:29:10.321Z,39.89
2016-12-17T00:30:19.005Z,39.79
2016-12-17T00:31:27.989Z,39.91
2016-12-17T00:32:37.288Z,39.53
2016-12-17T00:33:45.987Z,39.7
2016-12-17T00:34:55.385Z,39.81
2016-12-17T00:36:04.373Z,39.91
2016-12-17T00:37:13.664Z,39.61
2016-12-17T00:38:22.343Z,39.72
2016-12-17T00:39:31.325Z,39.62
2016-12-17T00:40:40.459Z,39.81
2016-12-17T00:41:49.446Z,39.81
2016-12-17T00:42:58.448Z,39.81
2016-12-17T00:44:07.137Z,39.7
2016-12-17T00:45:16.121Z,39.61
2016-12-17T00:46:25.096Z,39.61
2016-12-17T00:47:34.080Z,39.79
2016-12-17T00:48:43.094Z,39.72
2016-12-17T00:49:52.081Z,39.7
2016-12-17T00:51:01.062Z,39.62
2016-12-17T00:52:09.739Z,39.7
2016-12-17T00:53:18.421Z,39.81
2016-12-17T00:54:27.415Z,39.61
2016-12-17T00:55:36.402Z,39.7
2016-12-17T00:56:46.008Z,39.53
2016-12-17T00:57:55.298Z,39.79
2016-12-17T00:59:04.318Z,39.79
2016-12-17T01:00:13.335Z,39.91
2016-12-17T01:01:22.328Z,39.79
2016-12-17T01:02:31.623Z,39.81
2016-12-17T01:03:40.943Z,39.91
2016-12-17T01:04:49.624Z,39.89
2016-12-17T01:05:58.295Z,39.89
2016-12-17T01:07:06.971Z,39.79
2016-12-17T01:08:15.949Z,39.62
2016-12-17T01:09:25.107Z,39.61
2016-12-17T01:10:34.398Z,39.51
2016-12-17T01:11:43.099Z,39.62
2016-12-17T01:12:52.079Z,39.62
2016-12-17T01:14:01.058Z,39.62
2016-12-17T01:15:11.008Z,39.7
2016-12-17T01:16:20.609Z,39.61
2016-12-17T01:17:29.615Z,39.62
2016-12-17T01:18:38.313Z,39.61
2016-12-17T01:19:47.599Z,39.61
2016-12-17T01:20:56.597Z,39.51
2016-12-17T01:22:05.584Z,39.72
2016-12-17T01:23:14.298Z,39.62
2016-12-17T01:24:22.980Z,39.61
2016-12-17T01:25:31.658Z,39.61
2016-12-17T01:26:40.744Z,39.62
2016-12-17T01:27:50.042Z,39.62
2016-12-17T01:28:59.033Z,39.61
2016-12-17T01:30:08.021Z,39.62
2016-12-17T01:31:17.320Z,39.62
2016-12-17T01:32:26.308Z,39.62
2016-12-17T01:33:34.991Z,39.62
2016-12-17T01:34:43.674Z,39.61
2016-12-17T01:35:53.263Z,39.61
2016-12-17T01:37:02.244Z,39.62
2016-12-17T01:38:11.597Z,39.51
2016-12-17T01:39:20.887Z,39.61
2016-12-17T01:40:29.880Z,39.7
2016-12-17T01:41:38.559Z,39.7
2016-12-17T01:42:47.234Z,39.61
2016-12-17T01:43:56.364Z,39.61
2016-12-17T01:45:05.047Z,39.62
2016-12-17T01:46:14.037Z,39.7
2016-12-17T01:47:23.024Z,39.7
2016-12-17T01:48:31.705Z,39.61
2016-12-17T01:49:41.040Z,39.61
2016-12-17T01:50:50.031Z,39.61
2016-12-17T01:51:59.323Z,39.7
2016-12-17T01:53:08.000Z,39.61
2016-12-17T01:54:16.990Z,39.81
2016-12-17T01:55:25.740Z,39.61
2016-12-17T01:56:34.411Z,39.7
2016-12-17T01:57:44.014Z,39.61
2016-12-17T01:58:52.690Z,39.61
2016-12-17T02:00:01.667Z,39.53
2016-12-17T02:01:10.743Z,39.7
2016-12-17T02:02:20.642Z,39.72
2016-12-17T02:03:29.628Z,39.51
2016-12-17T02:04:39.234Z,39.61
2016-12-17T02:05:48.518Z,39.62
2016-12-17T02:06:57.346Z,39.61
2016-12-17T02:08:06.637Z,39.72
2016-12-17T02:09:15.638Z,39.51
2016-12-17T02:10:24.629Z,39.7
2016-12-17T02:11:33.618Z,39.7
2016-12-17T02:12:42.603Z,39.61
2016-12-17T02:13:51.279Z,39.41
2016-12-17T02:15:00.273Z,39.61
2016-12-17T02:16:09.559Z,39.61
2016-12-17T02:17:18.577Z,39.61
2016-12-17T02:18:27.914Z,39.62
2016-12-17T02:19:37.197Z,39.61
2016-12-17T02:20:46.498Z,39.61
2016-12-17T02:21:55.486Z,39.79
2016-12-17T02:23:05.085Z,39.61
2016-12-17T02:24:14.065Z,39.61
2016-12-17T02:25:22.774Z,39.62
2016-12-17T02:26:31.808Z,39.61
2016-12-17T02:27:41.093Z,39.61
2016-12-17T02:28:50.378Z,39.61
2016-12-17T02:30:00.706Z,39.61
2016-12-17T02:31:10.052Z,39.61
2016-12-17T02:32:19.331Z,39.61
2016-12-17T02:33:28.943Z,39.61
2016-12-17T02:34:38.249Z,39.61
2016-12-17T02:35:47.352Z,39.62
2016-12-17T02:36:56.032Z,39.7
2016-12-17T02:38:05.326Z,39.61
2016-12-17T02:39:14.316Z,39.7
2016-12-17T02:40:23.313Z,39.61
2016-12-17T02:41:32.605Z,39.61
2016-12-17T02:42:41.905Z,39.61
2016-12-17T02:43:50.606Z,39.61
2016-12-17T02:44:59.600Z,39.61
2016-12-17T02:46:08.601Z,39.61
2016-12-17T02:47:17.692Z,39.7
2016-12-17T02:48:26.986Z,39.61
2016-12-17T02:49:35.982Z,39.61
2016-12-17T02:50:45.271Z,39.61
2016-12-17T02:51:54.253Z,39.61
2016-12-17T02:53:03.038Z,39.61
2016-12-17T02:54:11.716Z,39.61
2016-12-17T02:55:20.393Z,39.61
2016-12-17T02:56:29.382Z,39.7
2016-12-17T02:57:38.376Z,39.7
2016-12-17T02:58:47.362Z,39.7
2016-12-17T02:59:56.348Z,39.61
2016-12-17T03:01:05.024Z,39.7
2016-12-17T03:02:13.697Z,39.61
2016-12-17T03:03:22.382Z,39.51
2016-12-17T03:04:31.735Z,39.61
2016-12-17T03:05:41.028Z,39.61
2016-12-17T03:06:50.626Z,39.61
2016-12-17T03:08:00.235Z,39.61
2016-12-17T03:09:09.217Z,39.61
2016-12-17T03:10:17.892Z,39.61
2016-12-17T03:11:26.882Z,39.61
2016-12-17T03:12:35.880Z,39.61
2016-12-17T03:13:45.175Z,39.61
2016-12-17T03:14:54.491Z,39.7
2016-12-17T03:16:03.956Z,39.51
2016-12-17T03:17:12.954Z,39.61
2016-12-17T03:18:21.939Z,39.79
2016-12-17T03:19:30.660Z,39.7
2016-12-17T03:20:39.333Z,39.61
2016-12-17T03:21:48.316Z,39.61
2016-12-17T03:22:57.947Z,39.79
2016-12-17T03:24:07.546Z,39.61
2016-12-17T03:25:16.847Z,39.7
2016-12-17T03:26:25.835Z,39.7
2016-12-17T03:27:34.980Z,39.61
2016-12-17T03:28:44.579Z,39.7
2016-12-17T03:29:53.258Z,39.7
2016-12-17T03:31:02.246Z,39.61
2016-12-17T03:32:11.538Z,39.61
2016-12-17T03:33:20.209Z,39.61
2016-12-17T03:34:29.497Z,39.61
2016-12-17T03:35:39.087Z,39.61
2016-12-17T03:36:47.765Z,39.7
2016-12-17T03:37:56.482Z,39.61
2016-12-17T03:39:05.524Z,39.61
2016-12-17T03:40:14.511Z,39.79
2016-12-17T03:41:23.187Z,39.61
2016-12-17T03:42:32.174Z,39.61
2016-12-17T03:43:41.164Z,39.61
2016-12-17T03:44:50.766Z,39.61
2016-12-17T03:46:00.058Z,39.61
2016-12-17T03:47:09.055Z,39.7
2016-12-17T03:48:18.358Z,39.61
2016-12-17T03:49:27.955Z,39.51
2016-12-17T03:50:37.255Z,39.61
2016-12-17T03:51:46.239Z,39.61
2016-12-17T03:52:56.220Z,39.61
2016-12-17T03:54:05.210Z,39.61
2016-12-17T03:55:14.196Z,39.61
2016-12-17T03:56:23.493Z,39.61
2016-12-17T03:57:32.795Z,39.61
2016-12-17T03:58:41.820Z,39.61
2016-12-17T03:59:50.819Z,39.7
2016-12-17T04:01:00.109Z,39.61
2016-12-17T04:02:10.364Z,39.61
2016-12-17T04:03:19.349Z,39.61
2016-12-17T04:04:28.639Z,39.7
2016-12-17T04:05:37.321Z,39.61
2016-12-17T04:06:46.615Z,39.61
2016-12-17T04:07:55.651Z,39.61
2016-12-17T04:09:04.357Z,39.7
2016-12-17T04:10:13.101Z,39.61
2016-12-17T04:11:22.089Z,39.61
2016-12-17T04:12:31.391Z,39.7
2016-12-17T04:13:40.524Z,39.7
2016-12-17T04:14:49.198Z,39.79
2016-12-17T04:15:57.874Z,39.61
2016-12-17T04:17:06.579Z,39.61
2016-12-17T04:18:15.253Z,39.7
2016-12-17T04:19:24.633Z,39.61
2016-12-17T04:20:33.309Z,39.61
2016-12-17T04:21:41.990Z,39.61
2016-12-17T04:22:50.968Z,39.61
2016-12-17T04:24:00.565Z,39.61
2016-12-17T04:25:10.178Z,39.61
2016-12-17T04:26:18.849Z,39.61
2016-12-17T04:27:27.838Z,39.61
2016-12-17T04:28:36.818Z,39.61
2016-12-17T04:29:45.499Z,39.7
2016-12-17T04:30:55.194Z,39.7
2016-12-17T04:32:04.190Z,39.79
2016-12-17T04:33:12.880Z,39.79
2016-12-17T04:34:21.561Z,39.7
2016-12-17T04:35:30.554Z,39.7
2016-12-17T04:36:39.993Z,39.61
2016-12-17T04:37:48.673Z,39.61
2016-12-17T04:38:57.654Z,39.51
2016-12-17T04:40:06.369Z,39.61
2016-12-17T04:41:15.151Z,39.7
2016-12-17T04:42:24.150Z,39.61
2016-12-17T04:43:33.259Z,39.7
2016-12-17T04:44:42.245Z,39.7
2016-12-17T04:45:50.927Z,39.61
2016-12-17T04:47:00.224Z,39.61
2016-12-17T04:48:09.056Z,39.61
2016-12-17T04:49:18.050Z,39.61
2016-12-17T04:50:27.034Z,39.61
2016-12-17T04:51:35.709Z,39.7
2016-12-17T04:52:44.380Z,39.61
2016-12-17T04:53:53.470Z,39.7
2016-12-17T04:55:02.147Z,39.61
2016-12-17T04:56:11.133Z,39.61
2016-12-17T04:57:20.119Z,39.7
2016-12-17T04:58:29.104Z,39.61
2016-12-17T04:59:37.931Z,39.61
2016-12-17T05:00:46.606Z,39.7
2016-12-17T05:01:55.906Z,39.61
2016-12-17T05:03:04.591Z,39.7
2016-12-17T05:04:13.288Z,39.61
2016-12-17T05:05:22.933Z,39.7
2016-12-17T05:06:32.233Z,39.61
2016-12-17T05:07:41.527Z,39.61
2016-12-17T05:08:51.130Z,39.61
2016-12-17T05:09:59.825Z,39.61
2016-12-17T05:11:08.829Z,39.7
2016-12-17T05:12:17.522Z,39.7
2016-12-17T05:13:27.119Z,39.61
2016-12-17T05:14:36.116Z,39.61
2016-12-17T05:15:44.796Z,39.61
2016-12-17T05:16:53.791Z,39.61
2016-12-17T05:18:02.774Z,39.7
2016-12-17T05:19:11.453Z,39.7
2016-12-17T05:20:20.741Z,39.7
2016-12-17T05:21:30.349Z,39.61
2016-12-17T05:22:39.171Z,39.61
2016-12-17T05:23:47.863Z,39.7
2016-12-17T05:24:56.543Z,39.61
2016-12-17T05:26:06.150Z,39.61
2016-12-17T05:27:15.459Z,39.61
2016-12-17T05:28:24.231Z,39.61
2016-12-17T05:29:32.903Z,39.61
2016-12-17T05:30:41.575Z,39.61
2016-12-17T05:31:50.269Z,39.61
2016-12-17T05:32:59.251Z,39.79
2016-12-17T05:34:08.898Z,39.7
2016-12-17T05:35:17.571Z,39.79
2016-12-17T05:36:26.558Z,39.79
2016-12-17T05:37:35.255Z,39.7
2016-12-17T05:38:44.248Z,39.7
2016-12-17T05:39:54.269Z,39.61
2016-12-17T05:41:03.265Z,39.79
2016-12-17T05:42:12.275Z,39.61
2016-12-17T05:43:20.952Z,39.61
2016-12-17T05:44:29.939Z,39.79
2016-12-17T05:45:39.053Z,39.61
2016-12-17T05:46:48.032Z,39.7
2016-12-17T05:47:56.726Z,39.7
2016-12-17T05:49:05.411Z,39.7
2016-12-17T05:50:14.417Z,39.7
2016-12-17T05:51:23.716Z,39.51
2016-12-17T05:52:33.009Z,39.7
2016-12-17T05:53:42.003Z,39.61
2016-12-17T05:54:50.980Z,39.7
2016-12-17T05:55:59.957Z,39.51
2016-12-17T05:57:09.397Z,39.51
2016-12-17T05:58:18.685Z,39.7
2016-12-17T05:59:27.691Z,39.51
2016-12-17T06:00:36.681Z,39.79
2016-12-17T06:01:45.661Z,39.7
2016-12-17T06:02:54.649Z,39.7
2016-12-17T06:04:03.652Z,39.61
2016-12-17T06:05:12.344Z,39.41
2016-12-17T06:06:21.331Z,39.51
2016-12-17T06:07:30.623Z,39.41
2016-12-17T06:08:39.722Z,39.41
2016-12-17T06:09:48.388Z,39.41
2016-12-17T06:10:57.098Z,39.51
2016-12-17T06:12:06.075Z,39.7
2016-12-17T06:13:15.069Z,39.51
2016-12-17T06:14:24.054Z,39.61
2016-12-17T06:15:33.056Z,39.41
2016-12-17T06:16:41.738Z,39.41
2016-12-17T06:17:51.024Z,39.41
2016-12-17T06:19:00.007Z,39.51
2016-12-17T06:20:08.995Z,39.22
2016-12-17T06:21:17.991Z,39.12
2016-12-17T06:22:26.676Z,39.12
2016-12-17T06:23:35.354Z,39.12
2016-12-17T06:24:44.045Z,39.12
2016-12-17T06:25:53.186Z,39.03
2016-12-17T06:27:01.865Z,39.12
2016-12-17T06:28:10.569Z,39.12
2016-12-17T06:29:19.949Z,39.22
2016-12-17T06:30:28.938Z,39.03
2016-12-17T06:31:38.067Z,39.12
2016-12-17T06:32:46.744Z,39.12
2016-12-17T06:33:56.038Z,39.31
2016-12-17T06:35:04.737Z,39.12
2016-12-17T06:36:13.745Z,39.12
2016-12-17T06:37:23.070Z,39.12
2016-12-17T06:38:32.066Z,39.03
2016-12-17T06:39:41.044Z,39.12
2016-12-17T06:40:49.712Z,39.12
2016-12-17T06:41:58.394Z,39.12
2016-12-17T06:43:07.687Z,39.12
2016-12-17T06:44:16.369Z,39.12
2016-12-17T06:45:25.067Z,39.12
2016-12-17T06:46:34.370Z,39.22
2016-12-17T06:47:43.037Z,39.41
2016-12-17T06:48:51.872Z,39.12
2016-12-17T06:50:01.173Z,39.31
2016-12-17T06:51:10.494Z,39.12
2016-12-17T06:52:19.788Z,39.31
2016-12-17T06:53:28.476Z,39.12
2016-12-17T06:54:37.267Z,39.03
2016-12-17T06:55:45.941Z,39.12
2016-12-17T06:56:55.542Z,39.31
2016-12-17T06:58:04.219Z,39.12
2016-12-17T06:59:13.211Z,39.41
2016-12-17T07:00:22.299Z,39.12
2016-12-17T07:01:31.914Z,39.31
2016-12-17T07:02:40.595Z,39.31
2016-12-17T07:03:49.902Z,39.12
2016-12-17T07:04:58.888Z,39.03
2016-12-17T07:06:08.179Z,39.22
2016-12-17T07:07:17.474Z,39.41
2016-12-17T07:08:26.157Z,39.31
2016-12-17T07:09:34.854Z,39.03
2016-12-17T07:10:43.834Z,39.31
2016-12-17T07:11:52.833Z,39.12
2016-12-17T07:13:01.840Z,39.22
2016-12-17T07:14:10.833Z,39.12
2016-12-17T07:15:19.861Z,39.12
2016-12-17T07:16:29.146Z,39.12
2016-12-17T07:17:38.228Z,39.41
2016-12-17T07:18:47.519Z,39.41
2016-12-17T07:19:56.497Z,39.41
2016-12-17T07:21:05.178Z,39.41
2016-12-17T07:22:14.157Z,39.12
2016-12-17T07:23:23.595Z,39.41
2016-12-17T07:24:32.598Z,39.03
2016-12-17T07:25:41.288Z,39.31
2016-12-17T07:26:50.266Z,39.41
2016-12-17T07:27:58.948Z,39.51
2016-12-17T07:29:08.382Z,39.41
2016-12-17T07:30:17.364Z,39.31
2016-12-17T07:31:26.659Z,39.41
2016-12-17T07:32:35.639Z,39.31
2016-12-17T07:33:44.623Z,39.22
2016-12-17T07:34:53.643Z,39.51
2016-12-17T07:36:02.952Z,39.31
2016-12-17T07:37:11.937Z,39.41
2016-12-17T07:40:53.625Z,39.12
2016-12-17T07:42:02.919Z,39.22
2016-12-17T07:43:12.242Z,39.41
2016-12-17T07:49:26.088Z,39.12
2016-12-17T07:50:35.101Z,39.12
2016-12-17T07:54:16.447Z,39.31
2016-12-17T07:55:25.124Z,39.12
2016-12-17T07:56:34.163Z,39.41
2016-12-17T07:57:43.776Z,39.41
2016-12-17T07:58:52.764Z,39.22
2016-12-17T08:00:01.445Z,39.22
2016-12-17T08:01:10.783Z,39.31
2016-12-17T08:02:20.427Z,39.31
2016-12-17T08:03:29.144Z,39.31
2016-12-17T08:04:38.444Z,39.03
2016-12-17T08:08:19.482Z,39.12
2016-12-17T08:09:28.152Z,39.22
2016-12-17T08:10:37.136Z,39.41
2016-12-17T08:11:46.124Z,39.31
2016-12-17T08:12:54.804Z,39.22
2016-12-17T08:14:03.663Z,39.31
2016-12-17T08:15:12.666Z,39.41
2016-12-17T08:16:21.647Z,39.31
2016-12-17T08:17:30.935Z,39.31
2016-12-17T08:18:39.931Z,39.41
2016-12-17T08:19:48.919Z,38.93
2016-12-17T08:20:57.989Z,38.74
2016-12-17T08:22:07.095Z,38.93
2016-12-17T08:23:16.112Z,39.22
2016-12-17T08:24:24.945Z,38.84
2016-12-17T08:25:34.462Z,38.64
2016-12-17T08:26:43.164Z,38.45
2016-12-17T08:27:52.457Z,38.28
2016-12-17T08:29:01.236Z,38.18
2016-12-17T08:30:10.135Z,38.37
2016-12-17T08:31:19.569Z,38.09
2016-12-17T08:32:28.553Z,37.7
2016-12-17T08:33:37.600Z,37.7
2016-12-17T08:34:46.608Z,37.72
2016-12-17T08:35:55.277Z,37.52
2016-12-17T08:37:04.672Z,37.52
2016-12-17T08:38:13.969Z,37.72
2016-12-17T08:39:22.968Z,37.62
2016-12-17T08:40:31.954Z,37.52
2016-12-17T08:41:40.671Z,37.52
2016-12-17T08:42:49.808Z,37.24
2016-12-17T08:43:58.872Z,37.24
2016-12-17T08:45:07.569Z,37.14
2016-12-17T08:46:16.903Z,37.45
2016-12-17T08:47:26.214Z,36.97
2016-12-17T08:48:34.924Z,37.06
2016-12-17T08:49:44.227Z,36.77
2016-12-17T08:50:53.247Z,36.97
2016-12-17T08:52:02.240Z,36.68
2016-12-17T08:53:11.534Z,36.58
2016-12-17T08:54:20.516Z,36.49
2016-12-17T08:55:29.810Z,36.77
2016-12-17T08:56:38.490Z,36.58
2016-12-17T08:57:47.490Z,36.69
2016-12-17T08:58:56.779Z,36.51
2016-12-17T09:00:05.476Z,36.21
2016-12-17T09:01:14.468Z,36.41
2016-12-17T09:02:23.459Z,36.21
2016-12-17T09:03:32.440Z,36.41
2016-12-17T09:04:41.424Z,36.21
2016-12-17T09:05:50.421Z,36.11
2016-12-17T09:06:59.410Z,36.23
2016-12-17T09:08:08.095Z,35.94
2016-12-17T09:09:17.706Z,35.75
2016-12-17T09:10:27.023Z,36.04
2016-12-17T09:11:36.022Z,35.94
2016-12-17T09:12:44.710Z,35.85
2016-12-17T09:13:54.311Z,35.94
2016-12-17T09:15:03.315Z,35.94
2016-12-17T09:16:12.922Z,35.65
2016-12-17T09:17:22.976Z,35.65
2016-12-17T09:18:32.288Z,35.56
2016-12-17T09:19:41.276Z,35.58
2016-12-17T09:20:50.261Z,35.58
2016-12-17T09:21:59.242Z,35.38
2016-12-17T09:23:08.336Z,35.48
2016-12-17T09:24:17.318Z,35.36
2016-12-17T09:25:26.319Z,35.48
2016-12-17T09:26:35.629Z,35.58
2016-12-17T09:27:44.617Z,35.58
2016-12-17T09:28:54.375Z,35.48
2016-12-17T09:30:03.366Z,35.48
2016-12-17T09:31:12.051Z,35.38
2016-12-17T09:32:21.343Z,35.38
2016-12-17T09:33:30.342Z,35.19
2016-12-17T09:34:39.442Z,35.21
2016-12-17T09:35:48.443Z,35.11
2016-12-17T09:36:57.742Z,35.02
2016-12-17T09:38:07.056Z,35.02
2016-12-17T09:39:15.745Z,35.02
2016-12-17T09:40:24.885Z,35.11
2016-12-17T09:41:33.927Z,35.21
2016-12-17T09:42:43.542Z,35.21
2016-12-17T09:43:52.836Z,35.21
2016-12-17T09:45:01.528Z,35.3
2016-12-17T09:46:11.133Z,34.82
2016-12-17T09:47:19.811Z,34.82
2016-12-17T09:48:28.497Z,34.72
2016-12-17T09:49:37.485Z,35.3
2016-12-17T09:50:47.091Z,34.82
2016-12-17T09:51:55.808Z,35.32
2016-12-17T09:53:04.799Z,35.32
2016-12-17T09:54:13.503Z,35.22
2016-12-17T09:55:22.813Z,35.22
2016-12-17T09:56:32.428Z,35.13
2016-12-17T09:57:41.563Z,35.32
2016-12-17T09:58:50.556Z,35.32
2016-12-17T09:59:59.267Z,35.13
2016-12-17T10:01:08.561Z,35.13
2016-12-17T10:02:17.556Z,35.13
2016-12-17T10:03:27.010Z,35.03
2016-12-17T10:04:36.309Z,35.13
2016-12-17T10:05:45.914Z,35.13
2016-12-17T10:06:54.597Z,35.03
2016-12-17T10:08:03.582Z,35.03
2016-12-17T10:09:12.878Z,35.13
2016-12-17T10:10:21.867Z,35.13
2016-12-17T10:11:30.564Z,35.13
2016-12-17T10:12:39.554Z,35.13
2016-12-17T10:13:48.556Z,35.03
2016-12-17T10:14:57.711Z,35.13
2016-12-17T10:16:06.409Z,35.22
2016-12-17T10:17:15.100Z,35.13
2016-12-17T10:18:24.102Z,35.13
2016-12-17T10:19:32.802Z,35.03
2016-12-17T10:20:41.852Z,34.94
2016-12-17T10:21:50.560Z,34.94
2016-12-17T10:22:59.249Z,35.22
2016-12-17T10:24:08.317Z,35.13
2016-12-17T10:25:17.832Z,35.22
2016-12-17T10:26:28.009Z,35.13
2016-12-17T10:27:36.765Z,35.22
2016-12-17T10:28:45.788Z,35.22
2016-12-17T10:29:54.837Z,35.13
2016-12-17T10:31:03.952Z,35.42
2016-12-17T10:32:13.049Z,35.52
2016-12-17T10:33:21.721Z,35.52
2016-12-17T10:34:31.329Z,35.52
2016-12-17T10:35:40.014Z,35.52
2016-12-17T10:36:48.998Z,35.8
2016-12-17T10:37:58.298Z,35.8
2016-12-17T10:39:07.283Z,35.9
2016-12-17T10:40:16.269Z,35.9
2016-12-17T10:41:25.867Z,35.8
2016-12-17T10:42:35.477Z,36.29
2016-12-17T10:43:44.629Z,36.27
2016-12-17T10:44:53.314Z,36.27
2016-12-17T10:46:02.314Z,36.46
2016-12-17T10:47:11.014Z,36.17
2016-12-17T10:48:20.023Z,36.36
2016-12-17T10:49:28.806Z,36.55
2016-12-17T10:50:38.108Z,36.75
2016-12-17T10:51:47.105Z,36.55
2016-12-17T10:52:56.412Z,36.75
2016-12-17T10:54:05.427Z,36.55
2016-12-17T10:55:14.577Z,36.85
2016-12-17T10:56:23.259Z,36.75
2016-12-17T10:57:32.551Z,36.94
2016-12-17T10:58:41.559Z,36.94
2016-12-17T10:59:50.242Z,37.02
2016-12-17T11:00:59.990Z,36.93
2016-12-17T11:02:08.683Z,37.41
2016-12-17T11:03:17.662Z,37.02
2016-12-17T11:04:26.661Z,36.93
2016-12-17T11:05:35.370Z,37.21
2016-12-17T11:06:44.361Z,37.31
2016-12-17T11:07:53.059Z,37.31
2016-12-17T11:09:02.374Z,37.21
2016-12-17T11:10:11.673Z,37.31
2016-12-17T11:11:20.990Z,37.41
2016-12-17T11:12:30.537Z,37.6
2016-12-17T11:13:39.836Z,37.6
2016-12-17T11:14:48.521Z,37.79
2016-12-17T11:15:57.509Z,37.6
2016-12-17T11:17:06.822Z,37.77
2016-12-17T11:18:16.151Z,37.7
2016-12-17T11:19:25.451Z,37.68
2016-12-17T11:20:34.475Z,37.7
2016-12-17T11:21:43.770Z,37.58
2016-12-17T11:22:52.793Z,37.68
2016-12-17T11:24:01.806Z,37.68
2016-12-17T11:25:10.792Z,37.96
2016-12-17T11:26:19.476Z,37.77
2016-12-17T11:27:28.191Z,37.77
2016-12-17T11:28:36.868Z,37.87
2016-12-17T11:29:45.711Z,37.96
2016-12-17T11:30:55.096Z,37.48
2016-12-17T11:32:04.697Z,37.77
2016-12-17T11:33:14.012Z,37.77
2016-12-17T11:34:22.999Z,37.68
2016-12-17T11:35:32.149Z,37.68
2016-12-17T11:36:41.145Z,37.68
2016-12-17T11:37:50.146Z,37.87
2016-12-17T11:38:58.825Z,38.06
2016-12-17T11:40:07.812Z,38.06
2016-12-17T11:41:16.486Z,38.06
2016-12-17T11:42:25.472Z,38.06
2016-12-17T11:43:34.759Z,38.06
2016-12-17T11:44:43.469Z,38.26
2016-12-17T11:45:52.146Z,38.16
2016-12-17T11:47:01.140Z,38.14
2016-12-17T11:48:09.820Z,38.24
2016-12-17T11:49:19.730Z,38.24
2016-12-17T11:50:28.412Z,38.24
2016-12-17T11:51:37.101Z,38.33
2016-12-17T11:52:46.434Z,38.24
2016-12-17T11:53:55.421Z,38.24
2016-12-17T11:55:04.726Z,38.24
2016-12-17T11:56:14.032Z,38.24
2016-12-17T11:57:23.331Z,38.33
2016-12-17T11:58:32.469Z,38.43
2016-12-17T11:59:41.774Z,38.24
2016-12-17T12:00:51.072Z,38.33
2016-12-17T12:02:00.377Z,38.43
2016-12-17T12:03:09.373Z,38.24
2016-12-17T12:04:18.723Z,38.43
2016-12-17T12:05:27.707Z,38.24
2016-12-17T12:06:37.306Z,38.43
2016-12-17T12:07:45.992Z,38.33
2016-12-17T12:08:55.289Z,38.24
2016-12-17T12:10:05.042Z,38.04
2016-12-17T12:11:14.657Z,38.33
2016-12-17T12:12:23.658Z,38.14
2016-12-17T12:13:32.950Z,38.24
2016-12-17T12:14:42.619Z,38.24
2016-12-17T12:15:51.604Z,38.24
2016-12-17T12:17:01.212Z,38.24
2016-12-17T12:18:10.210Z,38.24
2016-12-17T12:19:19.194Z,38.33
2016-12-17T12:20:28.801Z,38.24
2016-12-17T12:21:37.845Z,38.14
2016-12-17T12:22:46.537Z,38.14
2016-12-17T12:23:55.217Z,38.24
2016-12-17T12:25:04.509Z,38.24
2016-12-17T12:26:13.503Z,38.14
2016-12-17T12:27:22.655Z,38.33
2016-12-17T12:28:31.636Z,38.33
2016-12-17T12:29:40.643Z,38.22
2016-12-17T12:30:49.642Z,38.22
2016-12-17T12:31:58.631Z,38.31
2016-12-17T12:33:07.628Z,38.22
2016-12-17T12:34:16.341Z,38.12
2016-12-17T12:35:25.320Z,38.12
2016-12-17T12:36:34.035Z,38.02
2016-12-17T12:37:43.331Z,38.12
2016-12-17T12:38:52.619Z,38.22
2016-12-17T12:40:02.223Z,38.12
2016-12-17T12:41:10.922Z,38.31
2016-12-17T12:42:20.530Z,38.12
2016-12-17T12:43:29.204Z,38.24
2016-12-17T12:44:38.881Z,38.12
2016-12-17T12:45:47.577Z,38.22
2016-12-17T12:46:56.259Z,38.31
2016-12-17T12:48:05.249Z,38.31
2016-12-17T12:49:14.543Z,38.22
2016-12-17T12:50:23.362Z,38.22
2016-12-17T12:51:32.041Z,38.22
2016-12-17T12:52:40.738Z,38.12
2016-12-17T12:53:49.425Z,38.12
2016-12-17T12:54:58.126Z,38.22
2016-12-17T12:56:07.887Z,38.22
2016-12-17T12:57:16.877Z,38.22
2016-12-17T12:58:25.869Z,38.31
2016-12-17T12:59:34.542Z,38.22
2016-12-17T13:00:43.533Z,38.22
2016-12-17T13:01:52.212Z,38.12
2016-12-17T13:03:01.210Z,38.12
2016-12-17T13:04:10.205Z,38.22
2016-12-17T13:05:19.496Z,38.12
2016-12-17T13:06:28.493Z,38.22
2016-12-17T13:07:37.580Z,38.02
2016-12-17T13:08:46.573Z,38.22
2016-12-17T13:09:55.565Z,38.31
2016-12-17T13:11:04.869Z,38.22
2016-12-17T13:12:13.547Z,38.22
2016-12-17T13:13:22.542Z,38.22
2016-12-17T13:14:31.532Z,38.12
2016-12-17T13:15:40.221Z,38.22
2016-12-17T13:16:49.205Z,38.31
2016-12-17T13:17:58.202Z,38.22
2016-12-17T13:19:07.969Z,38.02
2016-12-17T13:20:17.885Z,38.22
2016-12-17T13:21:26.614Z,38.22
2016-12-17T13:22:35.339Z,38.22
2016-12-17T13:23:44.342Z,38.12
2016-12-17T13:24:53.692Z,38.22
2016-12-17T13:26:02.373Z,38.12
2016-12-17T13:27:11.379Z,38.22
2016-12-17T13:28:20.126Z,38.22
2016-12-17T13:29:29.125Z,38.12
2016-12-17T13:30:38.175Z,38.31
2016-12-17T13:31:47.159Z,38.31
2016-12-17T13:32:56.160Z,38.31
2016-12-17T13:34:05.150Z,38.41
2016-12-17T13:35:14.142Z,38.51
2016-12-17T13:36:23.853Z,38.51
2016-12-17T13:37:33.454Z,38.7
2016-12-17T13:38:43.052Z,38.51
2016-12-17T13:39:52.345Z,38.7
2016-12-17T13:41:01.338Z,38.78
2016-12-17T13:42:10.348Z,38.68
2016-12-17T13:43:19.693Z,38.68
2016-12-17T13:44:28.378Z,38.99
2016-12-17T13:45:37.082Z,38.7
2016-12-17T13:46:45.774Z,38.78
2016-12-17T13:47:54.620Z,38.6
2016-12-17T13:49:03.307Z,38.68
2016-12-17T13:50:12.302Z,38.49
2016-12-17T13:51:21.928Z,38.68
2016-12-17T13:52:30.911Z,38.49
2016-12-17T13:53:39.603Z,38.68
2016-12-17T13:54:48.299Z,38.6
2016-12-17T13:55:57.290Z,38.68
2016-12-17T13:57:06.015Z,38.59
2016-12-17T13:58:14.698Z,38.49
2016-12-17T13:59:24.160Z,38.41
2016-12-17T14:00:33.153Z,38.6
2016-12-17T14:01:42.448Z,38.39
2016-12-17T14:02:51.432Z,38.51
2016-12-17T14:04:00.428Z,38.39
2016-12-17T14:05:09.724Z,38.39
2016-12-17T14:06:18.710Z,38.39
2016-12-17T14:07:27.739Z,38.49
2016-12-17T14:08:37.055Z,38.31
2016-12-17T14:09:46.062Z,38.22
2016-12-17T14:10:56.010Z,38.12
2016-12-17T14:12:04.711Z,38.22
2016-12-17T14:13:14.349Z,38.22
2016-12-17T14:14:23.672Z,38.22
2016-12-17T14:15:32.412Z,38.02
2016-12-17T14:16:41.736Z,38.22
2016-12-17T14:17:50.752Z,38.22
2016-12-17T14:18:59.815Z,38.1
2016-12-17T14:20:08.512Z,38.41
2016-12-17T14:21:17.832Z,38.31
2016-12-17T14:22:26.853Z,38.02
2016-12-17T14:23:35.560Z,38.01
2016-12-17T14:24:44.266Z,38.02
2016-12-17T14:25:53.897Z,38.01
2016-12-17T14:27:03.563Z,38.01
2016-12-17T14:28:12.904Z,38.12
2016-12-17T14:29:22.227Z,38.1
2016-12-17T14:30:30.916Z,38.49
2016-12-17T14:31:39.927Z,38.1
2016-12-17T14:32:48.627Z,38.59
2016-12-17T14:33:57.973Z,38.59
2016-12-17T14:35:07.025Z,38.51
2016-12-17T14:36:16.393Z,38.1
2016-12-17T14:37:25.686Z,38.39
2016-12-17T14:38:34.377Z,38.39
2016-12-17T14:39:43.283Z,38.6
2016-12-17T14:40:52.606Z,38.49
2016-12-17T14:42:01.608Z,38.49
2016-12-17T14:43:10.612Z,38.49
2016-12-17T14:44:19.944Z,38.59
2016-12-17T14:45:28.947Z,38.59
2016-12-17T14:46:37.643Z,38.41
2016-12-17T14:47:47.009Z,38.39
2016-12-17T14:48:55.721Z,38.59
2016-12-17T14:50:05.027Z,38.39
2016-12-17T14:51:14.217Z,38.49
2016-12-17T14:52:22.919Z,38.29
2016-12-17T14:53:31.637Z,38.39
2016-12-17T14:54:40.639Z,38.39
2016-12-17T14:55:49.651Z,38.51
2016-12-17T14:56:58.974Z,38.39
2016-12-17T14:58:07.986Z,38.59
2016-12-17T14:59:17.325Z,38.49
2016-12-17T15:00:26.314Z,38.39
2016-12-17T15:01:35.306Z,38.39
2016-12-17T15:02:43.990Z,38.49
2016-12-17T15:03:52.664Z,38.59
2016-12-17T15:05:01.365Z,38.68